首页
METAR-TAF:

METAR-TAF

机场 :

金斯特里, 南卡罗来纳州, 美国

纬度: 33-43-02N, 经度: 079-51-25W, 海拔: 20米

当前天气观测

该预报发布于25分钟前的10:55 UTC
静风
温度 7°C
湿度 93%
气压 1016 hPa
能見度: 16.1公里
天空无云

METAR: KCKI 211055Z AUTO 00000KT 10SM CLR 07/06 A3000 RMK AO2

时间: 07:20 (11:20 UTC)


TAF: 丢失

超过4000个机场的气象观测和天气预报(METAR&TAF报告)。

可查询的气象台以黄色和红色小点在地图上表示。

将鼠标移到小点上方,可查看气象台名称。

然后点击查看天气观测和预报。

如需切换地图:点击带黑十字的绿色按钮放大地图;点击带横线的绿色按钮缩小地图;或者点击绿色箭头查看邻近地区的地图。


METAR-TAF: